sensor_id;sensor_type;location;lat;lon;timestamp;P1;durP1;ratioP1;P2;durP2;ratioP2
13228;SDS011;6680;53.220;10.402;2023-11-18T00:01:25;8.70;;;6.57;;
13228;SDS011;6680;53.220;10.402;2023-11-18T00:03:56;9.03;;;6.30;;
13228;SDS011;6680;53.220;10.402;2023-11-18T00:06:25;8.77;;;6.10;;
13228;SDS011;6680;53.220;10.402;2023-11-18T00:08:53;10.93;;;6.87;;
13228;SDS011;6680;53.220;10.402;2023-11-18T00:11:20;8.73;;;6.23;;
13228;SDS011;6680;53.220;10.402;2023-11-18T00:13:47;10.10;;;6.43;;
13228;SDS011;6680;53.220;10.402;2023-11-18T00:16:14;8.80;;;6.20;;
13228;SDS011;6680;53.220;10.402;2023-11-18T00:18:42;7.70;;;6.33;;
13228;SDS011;6680;53.220;10.402;2023-11-18T00:21:09;9.43;;;6.17;;
13228;SDS011;6680;53.220;10.402;2023-11-18T00:23:38;8.43;;;6.30;;
13228;SDS011;6680;53.220;10.402;2023-11-18T00:26:05;9.17;;;6.67;;
13228;SDS011;6680;53.220;10.402;2023-11-18T00:28:33;8.23;;;5.90;;
13228;SDS011;6680;53.220;10.402;2023-11-18T00:31:00;7.37;;;6.17;;
13228;SDS011;6680;53.220;10.402;2023-11-18T00:33:29;8.20;;;6.03;;
13228;SDS011;6680;53.220;10.402;2023-11-18T00:35:56;8.40;;;6.07;;
13228;SDS011;6680;53.220;10.402;2023-11-18T00:38:23;8.50;;;6.43;;
13228;SDS011;6680;53.220;10.402;2023-11-18T00:40:51;8.80;;;6.37;;
13228;SDS011;6680;53.220;10.402;2023-11-18T00:43:18;8.03;;;5.73;;
13228;SDS011;6680;53.220;10.402;2023-11-18T00:45:45;8.07;;;6.20;;
13228;SDS011;6680;53.220;10.402;2023-11-18T00:48:12;6.97;;;5.50;;
13228;SDS011;6680;53.220;10.402;2023-11-18T00:50:39;9.43;;;6.53;;
13228;SDS011;6680;53.220;10.402;2023-11-18T00:53:06;8.23;;;5.90;;
13228;SDS011;6680;53.220;10.402;2023-11-18T00:55:35;10.57;;;5.70;;
13228;SDS011;6680;53.220;10.402;2023-11-18T00:58:03;8.90;;;6.33;;
13228;SDS011;6680;53.220;10.402;2023-11-18T01:00:31;11.53;;;5.77;;
13228;SDS011;6680;53.220;10.402;2023-11-18T01:02:58;7.93;;;5.90;;
13228;SDS011;6680;53.220;10.402;2023-11-18T01:05:25;8.33;;;6.03;;
13228;SDS011;6680;53.220;10.402;2023-11-18T01:07:52;7.60;;;6.00;;
13228;SDS011;6680;53.220;10.402;2023-11-18T01:10:19;8.00;;;6.20;;
13228;SDS011;6680;53.220;10.402;2023-11-18T01:12:46;8.07;;;5.90;;
13228;SDS011;6680;53.220;10.402;2023-11-18T01:15:15;9.20;;;6.40;;
13228;SDS011;6680;53.220;10.402;2023-11-18T01:17:42;9.10;;;6.07;;
13228;SDS011;6680;53.220;10.402;2023-11-18T01:20:09;9.97;;;6.53;;
13228;SDS011;6680;53.220;10.402;2023-11-18T01:22:38;9.27;;;6.20;;
13228;SDS011;6680;53.220;10.402;2023-11-18T01:25:07;7.90;;;6.57;;
13228;SDS011;6680;53.220;10.402;2023-11-18T01:27:34;8.27;;;5.90;;
13228;SDS011;6680;53.220;10.402;2023-11-18T01:30:02;8.47;;;6.27;;
13228;SDS011;6680;53.220;10.402;2023-11-18T01:32:31;10.43;;;6.17;;
13228;SDS011;6680;53.220;10.402;2023-11-18T01:34:59;9.13;;;6.40;;
13228;SDS011;6680;53.220;10.402;2023-11-18T01:37:27;9.87;;;6.63;;
13228;SDS011;6680;53.220;10.402;2023-11-18T01:39:53;8.97;;;6.17;;
13228;SDS011;6680;53.220;10.402;2023-11-18T01:42:20;8.07;;;6.27;;
13228;SDS011;6680;53.220;10.402;2023-11-18T01:44:48;9.00;;;6.17;;
13228;SDS011;6680;53.220;10.402;2023-11-18T01:47:15;8.23;;;5.90;;
13228;SDS011;6680;53.220;10.402;2023-11-18T01:49:44;6.67;;;5.20;;
13228;SDS011;6680;53.220;10.402;2023-11-18T01:52:10;6.87;;;5.63;;
13228;SDS011;6680;53.220;10.402;2023-11-18T01:54:38;8.50;;;5.60;;
13228;SDS011;6680;53.220;10.402;2023-11-18T01:57:07;8.17;;;5.83;;
13228;SDS011;6680;53.220;10.402;2023-11-18T01:59:35;9.77;;;6.10;;
13228;SDS011;6680;53.220;10.402;2023-11-18T02:02:03;9.50;;;6.40;;
13228;SDS011;6680;53.220;10.402;2023-11-18T02:04:31;9.20;;;6.00;;
13228;SDS011;6680;53.220;10.402;2023-11-18T02:06:59;9.50;;;6.13;;
13228;SDS011;6680;53.220;10.402;2023-11-18T02:09:33;7.13;;;5.77;;
13228;SDS011;6680;53.220;10.402;2023-11-18T02:12:04;8.27;;;5.70;;
13228;SDS011;6680;53.220;10.402;2023-11-18T02:14:42;6.97;;;5.70;;
13228;SDS011;6680;53.220;10.402;2023-11-18T02:17:12;7.40;;;5.53;;
13228;SDS011;6680;53.220;10.402;2023-11-18T02:19:41;8.23;;;5.87;;
13228;SDS011;6680;53.220;10.402;2023-11-18T02:22:11;7.67;;;5.70;;
13228;SDS011;6680;53.220;10.402;2023-11-18T02:24:38;7.93;;;5.67;;
13228;SDS011;6680;53.220;10.402;2023-11-18T02:27:07;7.27;;;5.40;;
13228;SDS011;6680;53.220;10.402;2023-11-18T02:29:36;8.07;;;5.90;;
13228;SDS011;6680;53.220;10.402;2023-11-18T02:32:07;9.17;;;5.60;;
13228;SDS011;6680;53.220;10.402;2023-11-18T02:34:43;9.40;;;5.53;;
13228;SDS011;6680;53.220;10.402;2023-11-18T02:37:18;7.23;;;5.30;;
13228;SDS011;6680;53.220;10.402;2023-11-18T02:39:46;7.83;;;5.57;;
13228;SDS011;6680;53.220;10.402;2023-11-18T02:42:20;8.33;;;5.50;;
13228;SDS011;6680;53.220;10.402;2023-11-18T02:44:48;6.77;;;5.30;;
13228;SDS011;6680;53.220;10.402;2023-11-18T02:47:24;9.33;;;5.70;;
13228;SDS011;6680;53.220;10.402;2023-11-18T02:49:53;5.80;;;5.00;;
13228;SDS011;6680;53.220;10.402;2023-11-18T02:52:21;8.13;;;5.37;;
13228;SDS011;6680;53.220;10.402;2023-11-18T02:54:48;8.77;;;5.70;;
13228;SDS011;6680;53.220;10.402;2023-11-18T02:57:15;7.80;;;5.67;;
13228;SDS011;6680;53.220;10.402;2023-11-18T02:59:43;7.57;;;5.43;;
13228;SDS011;6680;53.220;10.402;2023-11-18T03:02:12;6.67;;;5.40;;
13228;SDS011;6680;53.220;10.402;2023-11-18T03:04:40;6.50;;;5.00;;
13228;SDS011;6680;53.220;10.402;2023-11-18T03:07:09;7.13;;;5.53;;
13228;SDS011;6680;53.220;10.402;2023-11-18T03:09:36;10.17;;;5.27;;
13228;SDS011;6680;53.220;10.402;2023-11-18T03:12:05;7.03;;;5.40;;
13228;SDS011;6680;53.220;10.402;2023-11-18T03:14:33;8.50;;;5.40;;
13228;SDS011;6680;53.220;10.402;2023-11-18T03:17:01;5.67;;;5.07;;
13228;SDS011;6680;53.220;10.402;2023-11-18T03:19:31;7.47;;;4.93;;
13228;SDS011;6680;53.220;10.402;2023-11-18T03:21:59;6.03;;;5.43;;
13228;SDS011;6680;53.220;10.402;2023-11-18T03:24:26;7.67;;;5.30;;
13228;SDS011;6680;53.220;10.402;2023-11-18T03:26:54;7.47;;;5.63;;
13228;SDS011;6680;53.220;10.402;2023-11-18T03:29:21;7.97;;;5.20;;
13228;SDS011;6680;53.220;10.402;2023-11-18T03:31:49;6.43;;;5.20;;
13228;SDS011;6680;53.220;10.402;2023-11-18T03:34:17;6.37;;;5.57;;
13228;SDS011;6680;53.220;10.402;2023-11-18T03:36:45;8.30;;;5.00;;
13228;SDS011;6680;53.220;10.402;2023-11-18T03:39:12;7.90;;;5.60;;
13228;SDS011;6680;53.220;10.402;2023-11-18T03:41:40;7.90;;;4.40;;
13228;SDS011;6680;53.220;10.402;2023-11-18T03:44:09;6.97;;;5.13;;
13228;SDS011;6680;53.220;10.402;2023-11-18T03:46:36;9.63;;;5.37;;
13228;SDS011;6680;53.220;10.402;2023-11-18T03:49:03;7.17;;;5.10;;
13228;SDS011;6680;53.220;10.402;2023-11-18T03:51:32;7.23;;;5.57;;
13228;SDS011;6680;53.220;10.402;2023-11-18T03:53:58;8.23;;;5.00;;
13228;SDS011;6680;53.220;10.402;2023-11-18T03:56:26;5.87;;;4.73;;
13228;SDS011;6680;53.220;10.402;2023-11-18T03:58:53;7.63;;;4.87;;
13228;SDS011;6680;53.220;10.402;2023-11-18T04:01:21;8.47;;;5.40;;
13228;SDS011;6680;53.220;10.402;2023-11-18T04:03:48;9.43;;;5.50;;
13228;SDS011;6680;53.220;10.402;2023-11-18T04:06:15;7.20;;;4.80;;
13228;SDS011;6680;53.220;10.402;2023-11-18T04:08:45;7.67;;;4.83;;
13228;SDS011;6680;53.220;10.402;2023-11-18T04:11:12;9.10;;;6.40;;
13228;SDS011;6680;53.220;10.402;2023-11-18T04:13:39;7.10;;;5.20;;
13228;SDS011;6680;53.220;10.402;2023-11-18T04:16:09;8.63;;;5.97;;
13228;SDS011;6680;53.220;10.402;2023-11-18T04:18:38;8.23;;;5.30;;
13228;SDS011;6680;53.220;10.402;2023-11-18T04:21:06;7.03;;;5.30;;
13228;SDS011;6680;53.220;10.402;2023-11-18T04:23:33;7.13;;;5.47;;
13228;SDS011;6680;53.220;10.402;2023-11-18T04:26:02;8.20;;;5.67;;
13228;SDS011;6680;53.220;10.402;2023-11-18T04:28:29;7.60;;;5.33;;
13228;SDS011;6680;53.220;10.402;2023-11-18T04:30:57;8.20;;;5.53;;
13228;SDS011;6680;53.220;10.402;2023-11-18T04:33:24;8.83;;;5.10;;
13228;SDS011;6680;53.220;10.402;2023-11-18T04:35:51;6.20;;;5.00;;
13228;SDS011;6680;53.220;10.402;2023-11-18T04:38:18;7.63;;;6.20;;
13228;SDS011;6680;53.220;10.402;2023-11-18T04:40:45;8.00;;;5.70;;
13228;SDS011;6680;53.220;10.402;2023-11-18T04:43:14;8.47;;;5.30;;
13228;SDS011;6680;53.220;10.402;2023-11-18T04:45:42;7.83;;;5.10;;
13228;SDS011;6680;53.220;10.402;2023-11-18T04:48:09;6.53;;;5.33;;
13228;SDS011;6680;53.220;10.402;2023-11-18T04:50:38;9.37;;;5.33;;
13228;SDS011;6680;53.220;10.402;2023-11-18T04:53:05;8.03;;;5.03;;
13228;SDS011;6680;53.220;10.402;2023-11-18T04:55:33;8.23;;;5.87;;
13228;SDS011;6680;53.220;10.402;2023-11-18T04:58:01;7.40;;;5.60;;
13228;SDS011;6680;53.220;10.402;2023-11-18T05:00:32;9.17;;;5.83;;
13228;SDS011;6680;53.220;10.402;2023-11-18T05:02:59;7.00;;;5.27;;
13228;SDS011;6680;53.220;10.402;2023-11-18T05:05:26;7.90;;;5.53;;
13228;SDS011;6680;53.220;10.402;2023-11-18T05:07:53;7.67;;;5.33;;
13228;SDS011;6680;53.220;10.402;2023-11-18T05:10:20;8.53;;;5.10;;
13228;SDS011;6680;53.220;10.402;2023-11-18T05:12:47;6.77;;;5.13;;
13228;SDS011;6680;53.220;10.402;2023-11-18T05:15:20;7.07;;;4.93;;
13228;SDS011;6680;53.220;10.402;2023-11-18T05:17:51;10.20;;;5.43;;
13228;SDS011;6680;53.220;10.402;2023-11-18T05:20:18;6.97;;;4.97;;
13228;SDS011;6680;53.220;10.402;2023-11-18T05:22:45;7.97;;;5.17;;
13228;SDS011;6680;53.220;10.402;2023-11-18T05:25:12;6.33;;;4.93;;
13228;SDS011;6680;53.220;10.402;2023-11-18T05:27:39;8.93;;;5.73;;
13228;SDS011;6680;53.220;10.402;2023-11-18T05:30:07;7.87;;;5.27;;
13228;SDS011;6680;53.220;10.402;2023-11-18T05:32:34;8.23;;;5.20;;
13228;SDS011;6680;53.220;10.402;2023-11-18T05:35:03;7.33;;;4.93;;
13228;SDS011;6680;53.220;10.402;2023-11-18T05:37:31;8.23;;;5.83;;
13228;SDS011;6680;53.220;10.402;2023-11-18T05:40:03;6.63;;;4.97;;
13228;SDS011;6680;53.220;10.402;2023-11-18T05:42:32;7.73;;;5.23;;
13228;SDS011;6680;53.220;10.402;2023-11-18T05:45:01;11.90;;;4.97;;
13228;SDS011;6680;53.220;10.402;2023-11-18T05:47:29;8.23;;;5.33;;
13228;SDS011;6680;53.220;10.402;2023-11-18T05:49:57;9.73;;;6.37;;
13228;SDS011;6680;53.220;10.402;2023-11-18T05:52:26;7.77;;;5.23;;
13228;SDS011;6680;53.220;10.402;2023-11-18T05:54:52;9.70;;;5.63;;
13228;SDS011;6680;53.220;10.402;2023-11-18T05:57:20;7.20;;;5.13;;
13228;SDS011;6680;53.220;10.402;2023-11-18T05:59:47;9.13;;;5.53;;
13228;SDS011;6680;53.220;10.402;2023-11-18T06:02:14;9.30;;;5.20;;
13228;SDS011;6680;53.220;10.402;2023-11-18T06:04:43;7.57;;;4.70;;
13228;SDS011;6680;53.220;10.402;2023-11-18T06:07:10;6.67;;;4.60;;
13228;SDS011;6680;53.220;10.402;2023-11-18T06:09:41;7.60;;;4.90;;
13228;SDS011;6680;53.220;10.402;2023-11-18T06:12:08;10.57;;;5.73;;
13228;SDS011;6680;53.220;10.402;2023-11-18T06:14:35;6.50;;;4.77;;
13228;SDS011;6680;53.220;10.402;2023-11-18T06:17:03;12.23;;;5.03;;
13228;SDS011;6680;53.220;10.402;2023-11-18T06:19:32;9.23;;;5.63;;
13228;SDS011;6680;53.220;10.402;2023-11-18T06:21:59;8.27;;;5.47;;
13228;SDS011;6680;53.220;10.402;2023-11-18T06:24:26;7.30;;;5.03;;
13228;SDS011;6680;53.220;10.402;2023-11-18T06:26:55;8.17;;;5.30;;
13228;SDS011;6680;53.220;10.402;2023-11-18T06:29:24;9.07;;;5.87;;
13228;SDS011;6680;53.220;10.402;2023-11-18T06:31:51;9.10;;;5.57;;
13228;SDS011;6680;53.220;10.402;2023-11-18T06:34:18;8.73;;;6.37;;
13228;SDS011;6680;53.220;10.402;2023-11-18T06:36:45;8.23;;;5.90;;
13228;SDS011;6680;53.220;10.402;2023-11-18T06:39:13;8.20;;;5.30;;
13228;SDS011;6680;53.220;10.402;2023-11-18T06:41:41;7.80;;;5.47;;
13228;SDS011;6680;53.220;10.402;2023-11-18T06:44:14;8.17;;;5.40;;
13228;SDS011;6680;53.220;10.402;2023-11-18T06:46:43;9.07;;;5.07;;
13228;SDS011;6680;53.220;10.402;2023-11-18T06:49:10;9.23;;;5.43;;
13228;SDS011;6680;53.220;10.402;2023-11-18T06:51:40;9.43;;;5.40;;
13228;SDS011;6680;53.220;10.402;2023-11-18T06:54:07;10.80;;;5.77;;
13228;SDS011;6680;53.220;10.402;2023-11-18T06:56:35;7.17;;;5.10;;
13228;SDS011;6680;53.220;10.402;2023-11-18T06:59:04;7.60;;;5.77;;
13228;SDS011;6680;53.220;10.402;2023-11-18T07:01:33;8.00;;;5.70;;
13228;SDS011;6680;53.220;10.402;2023-11-18T07:04:00;7.70;;;5.17;;
13228;SDS011;6680;53.220;10.402;2023-11-18T07:06:27;8.20;;;5.00;;
13228;SDS011;6680;53.220;10.402;2023-11-18T07:08:55;10.07;;;5.40;;
13228;SDS011;6680;53.220;10.402;2023-11-18T07:11:25;8.30;;;5.17;;
13228;SDS011;6680;53.220;10.402;2023-11-18T07:13:52;6.73;;;4.87;;
13228;SDS011;6680;53.220;10.402;2023-11-18T07:16:21;8.80;;;5.57;;
13228;SDS011;6680;53.220;10.402;2023-11-18T07:18:50;7.73;;;5.23;;
13228;SDS011;6680;53.220;10.402;2023-11-18T07:21:17;8.80;;;4.23;;
13228;SDS011;6680;53.220;10.402;2023-11-18T07:23:44;9.80;;;6.30;;
13228;SDS011;6680;53.220;10.402;2023-11-18T07:26:11;8.20;;;5.83;;
13228;SDS011;6680;53.220;10.402;2023-11-18T07:28:39;9.50;;;5.50;;
13228;SDS011;6680;53.220;10.402;2023-11-18T07:31:06;10.23;;;5.73;;
13228;SDS011;6680;53.220;10.402;2023-11-18T07:33:34;8.10;;;5.30;;
13228;SDS011;6680;53.220;10.402;2023-11-18T07:36:03;8.27;;;5.23;;
13228;SDS011;6680;53.220;10.402;2023-11-18T07:38:31;10.07;;;5.33;;
13228;SDS011;6680;53.220;10.402;2023-11-18T07:40:59;8.50;;;5.73;;
13228;SDS011;6680;53.220;10.402;2023-11-18T07:43:27;11.00;;;6.33;;
13228;SDS011;6680;53.220;10.402;2023-11-18T07:45:55;10.93;;;7.23;;
13228;SDS011;6680;53.220;10.402;2023-11-18T07:48:22;10.10;;;7.00;;
13228;SDS011;6680;53.220;10.402;2023-11-18T07:50:49;12.57;;;6.80;;
13228;SDS011;6680;53.220;10.402;2023-11-18T07:53:17;11.00;;;6.73;;
13228;SDS011;6680;53.220;10.402;2023-11-18T07:55:44;10.33;;;6.17;;
13228;SDS011;6680;53.220;10.402;2023-11-18T07:58:12;8.97;;;5.87;;
13228;SDS011;6680;53.220;10.402;2023-11-18T08:00:40;10.40;;;6.03;;
13228;SDS011;6680;53.220;10.402;2023-11-18T08:03:07;13.07;;;7.07;;
13228;SDS011;6680;53.220;10.402;2023-11-18T08:05:36;9.23;;;6.27;;
13228;SDS011;6680;53.220;10.402;2023-11-18T08:08:04;8.90;;;5.03;;
13228;SDS011;6680;53.220;10.402;2023-11-18T08:10:33;9.17;;;5.60;;
13228;SDS011;6680;53.220;10.402;2023-11-18T08:13:02;10.50;;;5.70;;
13228;SDS011;6680;53.220;10.402;2023-11-18T08:15:30;8.23;;;5.20;;
13228;SDS011;6680;53.220;10.402;2023-11-18T08:17:57;9.47;;;5.10;;
13228;SDS011;6680;53.220;10.402;2023-11-18T08:20:24;7.27;;;5.50;;
13228;SDS011;6680;53.220;10.402;2023-11-18T08:22:51;8.70;;;5.80;;
13228;SDS011;6680;53.220;10.402;2023-11-18T08:25:20;10.63;;;6.50;;
13228;SDS011;6680;53.220;10.402;2023-11-18T08:27:48;8.37;;;5.50;;
13228;SDS011;6680;53.220;10.402;2023-11-18T08:30:16;10.17;;;5.83;;
13228;SDS011;6680;53.220;10.402;2023-11-18T08:32:45;10.63;;;6.10;;
13228;SDS011;6680;53.220;10.402;2023-11-18T08:35:13;9.70;;;5.87;;
13228;SDS011;6680;53.220;10.402;2023-11-18T08:37:41;13.10;;;6.87;;
13228;SDS011;6680;53.220;10.402;2023-11-18T08:40:09;7.93;;;5.43;;
13228;SDS011;6680;53.220;10.402;2023-11-18T08:42:41;9.30;;;5.87;;
13228;SDS011;6680;53.220;10.402;2023-11-18T08:45:14;10.63;;;6.83;;
13228;SDS011;6680;53.220;10.402;2023-11-18T08:47:43;9.37;;;6.27;;
13228;SDS011;6680;53.220;10.402;2023-11-18T08:50:12;7.33;;;4.97;;
13228;SDS011;6680;53.220;10.402;2023-11-18T08:52:40;8.63;;;5.50;;
13228;SDS011;6680;53.220;10.402;2023-11-18T08:55:09;6.77;;;4.83;;
13228;SDS011;6680;53.220;10.402;2023-11-18T08:57:43;8.23;;;5.60;;
13228;SDS011;6680;53.220;10.402;2023-11-18T09:00:19;7.43;;;4.93;;
13228;SDS011;6680;53.220;10.402;2023-11-18T09:03:00;9.70;;;5.57;;
13228;SDS011;6680;53.220;10.402;2023-11-18T09:05:30;10.13;;;5.73;;
13228;SDS011;6680;53.220;10.402;2023-11-18T09:07:57;10.47;;;6.33;;
13228;SDS011;6680;53.220;10.402;2023-11-18T09:10:25;8.63;;;5.17;;
13228;SDS011;6680;53.220;10.402;2023-11-18T09:12:53;8.50;;;6.10;;
13228;SDS011;6680;53.220;10.402;2023-11-18T09:15:21;12.23;;;5.90;;
13228;SDS011;6680;53.220;10.402;2023-11-18T09:17:48;10.27;;;6.20;;
13228;SDS011;6680;53.220;10.402;2023-11-18T09:20:15;7.20;;;5.23;;
13228;SDS011;6680;53.220;10.402;2023-11-18T09:22:45;8.73;;;5.90;;
13228;SDS011;6680;53.220;10.402;2023-11-18T09:25:13;8.50;;;5.93;;
13228;SDS011;6680;53.220;10.402;2023-11-18T09:27:41;11.00;;;6.33;;
13228;SDS011;6680;53.220;10.402;2023-11-18T09:30:08;7.60;;;5.80;;
13228;SDS011;6680;53.220;10.402;2023-11-18T09:32:40;5.70;;;4.73;;
13228;SDS011;6680;53.220;10.402;2023-11-18T09:35:08;7.40;;;5.17;;
13228;SDS011;6680;53.220;10.402;2023-11-18T09:37:37;8.57;;;5.27;;
13228;SDS011;6680;53.220;10.402;2023-11-18T09:40:06;8.23;;;4.70;;
13228;SDS011;6680;53.220;10.402;2023-11-18T09:42:37;7.97;;;5.50;;
13228;SDS011;6680;53.220;10.402;2023-11-18T09:45:05;8.17;;;5.17;;
13228;SDS011;6680;53.220;10.402;2023-11-18T09:47:42;7.47;;;4.83;;
13228;SDS011;6680;53.220;10.402;2023-11-18T09:50:12;8.80;;;4.87;;
13228;SDS011;6680;53.220;10.402;2023-11-18T09:52:48;6.00;;;4.90;;
13228;SDS011;6680;53.220;10.402;2023-11-18T09:55:21;6.00;;;4.67;;
13228;SDS011;6680;53.220;10.402;2023-11-18T09:57:55;5.97;;;4.50;;
13228;SDS011;6680;53.220;10.402;2023-11-18T10:00:31;5.90;;;4.37;;
13228;SDS011;6680;53.220;10.402;2023-11-18T10:03:01;7.93;;;4.60;;
13228;SDS011;6680;53.220;10.402;2023-11-18T10:05:33;6.53;;;3.93;;
13228;SDS011;6680;53.220;10.402;2023-11-18T10:08:01;6.30;;;4.57;;
13228;SDS011;6680;53.220;10.402;2023-11-18T10:10:30;4.93;;;3.70;;
13228;SDS011;6680;53.220;10.402;2023-11-18T10:13:01;4.80;;;3.93;;
13228;SDS011;6680;53.220;10.402;2023-11-18T10:15:33;6.43;;;4.43;;
13228;SDS011;6680;53.220;10.402;2023-11-18T10:18:02;5.50;;;4.13;;
13228;SDS011;6680;53.220;10.402;2023-11-18T10:20:45;3.83;;;2.93;;
13228;SDS011;6680;53.220;10.402;2023-11-18T10:23:13;4.40;;;3.63;;
13228;SDS011;6680;53.220;10.402;2023-11-18T10:25:45;5.87;;;4.30;;
13228;SDS011;6680;53.220;10.402;2023-11-18T10:28:20;5.30;;;3.70;;
13228;SDS011;6680;53.220;10.402;2023-11-18T10:30:48;5.67;;;3.87;;
13228;SDS011;6680;53.220;10.402;2023-11-18T10:33:17;6.30;;;4.10;;
13228;SDS011;6680;53.220;10.402;2023-11-18T10:35:50;5.27;;;3.40;;
13228;SDS011;6680;53.220;10.402;2023-11-18T10:38:20;6.07;;;3.80;;
13228;SDS011;6680;53.220;10.402;2023-11-18T10:40:50;5.03;;;3.60;;
13228;SDS011;6680;53.220;10.402;2023-11-18T10:43:20;5.40;;;3.90;;
13228;SDS011;6680;53.220;10.402;2023-11-18T10:45:49;4.23;;;3.77;;
13228;SDS011;6680;53.220;10.402;2023-11-18T10:48:19;8.53;;;4.33;;
13228;SDS011;6680;53.220;10.402;2023-11-18T10:50:46;4.70;;;3.87;;
13228;SDS011;6680;53.220;10.402;2023-11-18T10:53:15;5.23;;;3.70;;
13228;SDS011;6680;53.220;10.402;2023-11-18T10:55:42;5.07;;;3.83;;
13228;SDS011;6680;53.220;10.402;2023-11-18T10:58:10;5.93;;;3.80;;
13228;SDS011;6680;53.220;10.402;2023-11-18T11:00:45;4.93;;;3.77;;
13228;SDS011;6680;53.220;10.402;2023-11-18T11:03:13;5.13;;;4.30;;
13228;SDS011;6680;53.220;10.402;2023-11-18T11:05:42;4.43;;;3.50;;
13228;SDS011;6680;53.220;10.402;2023-11-18T11:08:09;4.03;;;2.73;;
13228;SDS011;6680;53.220;10.402;2023-11-18T11:10:41;3.57;;;3.17;;
13228;SDS011;6680;53.220;10.402;2023-11-18T11:13:08;3.00;;;2.67;;
13228;SDS011;6680;53.220;10.402;2023-11-18T11:15:37;4.47;;;2.73;;
13228;SDS011;6680;53.220;10.402;2023-11-18T11:18:11;2.83;;;2.53;;
13228;SDS011;6680;53.220;10.402;2023-11-18T11:20:50;3.13;;;2.63;;
13228;SDS011;6680;53.220;10.402;2023-11-18T11:23:30;3.33;;;2.33;;
13228;SDS011;6680;53.220;10.402;2023-11-18T11:26:11;4.37;;;2.67;;
13228;SDS011;6680;53.220;10.402;2023-11-18T11:28:48;2.70;;;2.50;;
13228;SDS011;6680;53.220;10.402;2023-11-18T11:31:20;4.27;;;3.00;;
13228;SDS011;6680;53.220;10.402;2023-11-18T11:33:53;3.63;;;2.70;;
13228;SDS011;6680;53.220;10.402;2023-11-18T11:36:25;4.20;;;3.23;;
13228;SDS011;6680;53.220;10.402;2023-11-18T11:38:58;2.97;;;2.73;;
13228;SDS011;6680;53.220;10.402;2023-11-18T11:41:26;2.87;;;2.50;;
13228;SDS011;6680;53.220;10.402;2023-11-18T11:43:55;3.30;;;3.00;;
13228;SDS011;6680;53.220;10.402;2023-11-18T11:46:23;3.07;;;2.70;;
13228;SDS011;6680;53.220;10.402;2023-11-18T11:48:58;3.80;;;2.93;;
13228;SDS011;6680;53.220;10.402;2023-11-18T11:51:36;3.93;;;2.93;;
13228;SDS011;6680;53.220;10.402;2023-11-18T11:54:09;4.50;;;2.83;;
13228;SDS011;6680;53.220;10.402;2023-11-18T11:56:41;4.33;;;3.03;;
13228;SDS011;6680;53.220;10.402;2023-11-18T11:59:09;3.50;;;2.40;;
13228;SDS011;6680;53.220;10.402;2023-11-18T12:01:36;3.50;;;2.67;;
13228;SDS011;6680;53.220;10.402;2023-11-18T12:04:06;2.90;;;2.30;;
13228;SDS011;6680;53.220;10.402;2023-11-18T12:06:47;2.50;;;2.30;;
13228;SDS011;6680;53.220;10.402;2023-11-18T12:09:18;3.27;;;2.70;;
13228;SDS011;6680;53.220;10.402;2023-11-18T12:11:46;3.23;;;2.93;;
13228;SDS011;6680;53.220;10.402;2023-11-18T12:14:15;3.10;;;2.80;;
13228;SDS011;6680;53.220;10.402;2023-11-18T12:17:06;3.97;;;3.07;;
13228;SDS011;6680;53.220;10.402;2023-11-18T12:19:34;4.77;;;3.03;;
13228;SDS011;6680;53.220;10.402;2023-11-18T12:22:11;4.20;;;3.30;;
13228;SDS011;6680;53.220;10.402;2023-11-18T12:27:58;3.33;;;2.90;;
13228;SDS011;6680;53.220;10.402;2023-11-18T12:30:41;5.73;;;3.80;;
13228;SDS011;6680;53.220;10.402;2023-11-18T12:36:37;3.70;;;2.93;;
13228;SDS011;6680;53.220;10.402;2023-11-18T12:42:51;5.40;;;2.93;;
13228;SDS011;6680;53.220;10.402;2023-11-18T12:48:41;3.30;;;2.47;;
13228;SDS011;6680;53.220;10.402;2023-11-18T12:51:11;4.33;;;3.00;;
13228;SDS011;6680;53.220;10.402;2023-11-18T12:53:44;2.67;;;2.40;;
13228;SDS011;6680;53.220;10.402;2023-11-18T12:56:14;3.27;;;2.97;;
13228;SDS011;6680;53.220;10.402;2023-11-18T12:58:43;6.07;;;2.70;;
13228;SDS011;6680;53.220;10.402;2023-11-18T13:01:12;2.70;;;2.50;;
13228;SDS011;6680;53.220;10.402;2023-11-18T13:03:39;3.43;;;2.57;;
13228;SDS011;6680;53.220;10.402;2023-11-18T13:06:07;3.57;;;2.83;;
13228;SDS011;6680;53.220;10.402;2023-11-18T13:08:36;2.97;;;2.70;;
13228;SDS011;6680;53.220;10.402;2023-11-18T13:11:03;3.43;;;2.73;;
13228;SDS011;6680;53.220;10.402;2023-11-18T13:13:31;3.67;;;2.93;;
13228;SDS011;6680;53.220;10.402;2023-11-18T13:16:02;4.73;;;2.87;;
13228;SDS011;6680;53.220;10.402;2023-11-18T13:18:40;2.93;;;2.60;;
13228;SDS011;6680;53.220;10.402;2023-11-18T13:21:12;2.80;;;2.50;;
13228;SDS011;6680;53.220;10.402;2023-11-18T13:23:41;3.40;;;2.73;;
13228;SDS011;6680;53.220;10.402;2023-11-18T13:26:08;5.13;;;3.40;;
13228;SDS011;6680;53.220;10.402;2023-11-18T13:28:36;3.47;;;3.17;;
13228;SDS011;6680;53.220;10.402;2023-11-18T13:31:06;4.03;;;3.00;;
13228;SDS011;6680;53.220;10.402;2023-11-18T13:33:36;4.57;;;3.20;;
13228;SDS011;6680;53.220;10.402;2023-11-18T13:36:04;3.43;;;2.80;;
13228;SDS011;6680;53.220;10.402;2023-11-18T13:38:35;4.07;;;3.37;;
13228;SDS011;6680;53.220;10.402;2023-11-18T13:41:02;6.63;;;3.23;;
13228;SDS011;6680;53.220;10.402;2023-11-18T13:43:40;3.40;;;2.63;;
13228;SDS011;6680;53.220;10.402;2023-11-18T13:46:11;3.00;;;2.70;;
13228;SDS011;6680;53.220;10.402;2023-11-18T13:48:39;8.77;;;3.00;;
13228;SDS011;6680;53.220;10.402;2023-11-18T13:51:06;5.20;;;3.10;;
13228;SDS011;6680;53.220;10.402;2023-11-18T13:53:37;3.40;;;3.00;;
13228;SDS011;6680;53.220;10.402;2023-11-18T13:56:05;3.60;;;2.60;;
13228;SDS011;6680;53.220;10.402;2023-11-18T13:58:34;3.23;;;2.93;;
13228;SDS011;6680;53.220;10.402;2023-11-18T14:01:02;2.73;;;2.23;;
13228;SDS011;6680;53.220;10.402;2023-11-18T14:03:32;2.80;;;2.30;;
13228;SDS011;6680;53.220;10.402;2023-11-18T14:06:01;2.60;;;2.40;;
13228;SDS011;6680;53.220;10.402;2023-11-18T14:08:29;2.37;;;2.07;;
13228;SDS011;6680;53.220;10.402;2023-11-18T14:10:56;2.90;;;2.33;;
13228;SDS011;6680;53.220;10.402;2023-11-18T14:13:22;2.50;;;2.10;;
13228;SDS011;6680;53.220;10.402;2023-11-18T14:15:49;3.43;;;2.50;;
13228;SDS011;6680;53.220;10.402;2023-11-18T14:18:20;3.80;;;2.50;;
13228;SDS011;6680;53.220;10.402;2023-11-18T14:20:48;3.80;;;3.13;;
13228;SDS011;6680;53.220;10.402;2023-11-18T14:23:15;3.73;;;2.87;;
13228;SDS011;6680;53.220;10.402;2023-11-18T14:25:43;3.50;;;2.83;;
13228;SDS011;6680;53.220;10.402;2023-11-18T14:28:10;4.80;;;3.13;;
13228;SDS011;6680;53.220;10.402;2023-11-18T14:30:38;4.03;;;3.10;;
13228;SDS011;6680;53.220;10.402;2023-11-18T14:33:05;4.43;;;3.27;;
13228;SDS011;6680;53.220;10.402;2023-11-18T14:35:33;4.00;;;3.30;;
13228;SDS011;6680;53.220;10.402;2023-11-18T14:38:01;5.00;;;4.03;;
13228;SDS011;6680;53.220;10.402;2023-11-18T14:40:28;5.87;;;4.07;;
13228;SDS011;6680;53.220;10.402;2023-11-18T14:42:57;4.23;;;3.53;;
13228;SDS011;6680;53.220;10.402;2023-11-18T14:45:24;4.83;;;3.43;;
13228;SDS011;6680;53.220;10.402;2023-11-18T14:47:51;5.27;;;3.50;;
13228;SDS011;6680;53.220;10.402;2023-11-18T14:50:21;5.53;;;3.80;;
13228;SDS011;6680;53.220;10.402;2023-11-18T14:52:49;5.07;;;3.40;;
13228;SDS011;6680;53.220;10.402;2023-11-18T14:55:22;3.87;;;3.10;;
13228;SDS011;6680;53.220;10.402;2023-11-18T14:57:50;3.60;;;3.20;;
13228;SDS011;6680;53.220;10.402;2023-11-18T15:00:17;3.70;;;3.27;;
13228;SDS011;6680;53.220;10.402;2023-11-18T15:02:50;3.70;;;3.40;;
13228;SDS011;6680;53.220;10.402;2023-11-18T15:05:18;4.27;;;3.60;;
13228;SDS011;6680;53.220;10.402;2023-11-18T15:07:46;3.30;;;3.00;;
13228;SDS011;6680;53.220;10.402;2023-11-18T15:10:16;4.70;;;3.30;;